sensor_id;sensor_type;location;lat;lon;timestamp;temperature;humidity
3156;DHT22;1588;50.892;7.082;2023-01-01T00:01:22;14.90;99.90
3156;DHT22;1588;50.892;7.082;2023-01-01T00:06:25;14.80;99.90
3156;DHT22;1588;50.892;7.082;2023-01-01T00:11:29;14.80;99.90
3156;DHT22;1588;50.892;7.082;2023-01-01T00:16:32;14.60;99.90
3156;DHT22;1588;50.892;7.082;2023-01-01T00:21:38;14.60;99.90
3156;DHT22;1588;50.892;7.082;2023-01-01T00:26:56;14.60;99.90
3156;DHT22;1588;50.892;7.082;2023-01-01T00:31:59;14.50;99.90
3156;DHT22;1588;50.892;7.082;2023-01-01T00:37:03;14.50;99.90
3156;DHT22;1588;50.892;7.082;2023-01-01T00:42:07;14.40;99.90
3156;DHT22;1588;50.892;7.082;2023-01-01T00:47:10;14.50;99.90
3156;DHT22;1588;50.892;7.082;2023-01-01T00:52:15;14.40;99.90
3156;DHT22;1588;50.892;7.082;2023-01-01T00:57:19;14.30;99.90
3156;DHT22;1588;50.892;7.082;2023-01-01T01:02:22;14.10;99.90
3156;DHT22;1588;50.892;7.082;2023-01-01T01:07:24;14.20;99.90
3156;DHT22;1588;50.892;7.082;2023-01-01T01:12:28;14.30;99.90
3156;DHT22;1588;50.892;7.082;2023-01-01T01:17:32;14.10;99.90
3156;DHT22;1588;50.892;7.082;2023-01-01T01:22:34;14.10;99.90
3156;DHT22;1588;50.892;7.082;2023-01-01T01:33:22;13.80;99.90
3156;DHT22;1588;50.892;7.082;2023-01-01T01:38:25;13.90;99.90
3156;DHT22;1588;50.892;7.082;2023-01-01T01:43:49;13.80;99.90
3156;DHT22;1588;50.892;7.082;2023-01-01T01:48:59;13.70;99.90
3156;DHT22;1588;50.892;7.082;2023-01-01T01:54:08;13.60;99.90
3156;DHT22;1588;50.892;7.082;2023-01-01T01:59:18;13.60;99.90
3156;DHT22;1588;50.892;7.082;2023-01-01T02:04:23;13.60;99.90
3156;DHT22;1588;50.892;7.082;2023-01-01T02:09:26;13.70;99.90
3156;DHT22;1588;50.892;7.082;2023-01-01T02:14:30;13.60;99.90
3156;DHT22;1588;50.892;7.082;2023-01-01T02:19:43;13.50;99.90
3156;DHT22;1588;50.892;7.082;2023-01-01T02:24:58;13.50;99.90
3156;DHT22;1588;50.892;7.082;2023-01-01T02:30:13;13.60;99.90
3156;DHT22;1588;50.892;7.082;2023-01-01T02:35:55;13.70;99.90
3156;DHT22;1588;50.892;7.082;2023-01-01T02:41:01;13.70;99.90
3156;DHT22;1588;50.892;7.082;2023-01-01T02:46:07;13.90;99.90
3156;DHT22;1588;50.892;7.082;2023-01-01T02:51:16;13.90;99.90
3156;DHT22;1588;50.892;7.082;2023-01-01T02:56:29;13.90;99.90
3156;DHT22;1588;50.892;7.082;2023-01-01T03:01:41;14.00;99.90
3156;DHT22;1588;50.892;7.082;2023-01-01T03:06:54;14.00;99.90
3156;DHT22;1588;50.892;7.082;2023-01-01T03:12:04;14.00;99.90
3156;DHT22;1588;50.892;7.082;2023-01-01T03:17:20;14.00;99.90
3156;DHT22;1588;50.892;7.082;2023-01-01T03:22:31;14.00;99.90
3156;DHT22;1588;50.892;7.082;2023-01-01T03:27:38;14.00;99.90
3156;DHT22;1588;50.892;7.082;2023-01-01T03:32:46;14.10;99.90
3156;DHT22;1588;50.892;7.082;2023-01-01T03:38:07;14.00;99.90
3156;DHT22;1588;50.892;7.082;2023-01-01T03:43:16;14.00;99.90
3156;DHT22;1588;50.892;7.082;2023-01-01T03:48:23;14.00;99.90
3156;DHT22;1588;50.892;7.082;2023-01-01T03:53:32;14.20;99.90
3156;DHT22;1588;50.892;7.082;2023-01-01T03:58:41;14.20;99.90
3156;DHT22;1588;50.892;7.082;2023-01-01T04:03:50;14.10;99.90
3156;DHT22;1588;50.892;7.082;2023-01-01T04:09:11;14.20;99.90
3156;DHT22;1588;50.892;7.082;2023-01-01T04:14:25;14.10;99.90
3156;DHT22;1588;50.892;7.082;2023-01-01T04:19:33;14.30;99.90
3156;DHT22;1588;50.892;7.082;2023-01-01T04:24:44;14.20;99.90
3156;DHT22;1588;50.892;7.082;2023-01-01T04:29:51;14.20;99.90
3156;DHT22;1588;50.892;7.082;2023-01-01T04:34:57;14.20;99.90
3156;DHT22;1588;50.892;7.082;2023-01-01T04:40:11;14.10;99.90
3156;DHT22;1588;50.892;7.082;2023-01-01T04:45:14;14.10;99.90
3156;DHT22;1588;50.892;7.082;2023-01-01T04:50:19;14.10;99.90
3156;DHT22;1588;50.892;7.082;2023-01-01T04:55:21;14.10;99.90
3156;DHT22;1588;50.892;7.082;2023-01-01T05:00:24;14.00;99.90
3156;DHT22;1588;50.892;7.082;2023-01-01T05:05:28;14.00;99.90
3156;DHT22;1588;50.892;7.082;2023-01-01T05:10:31;14.10;99.90
3156;DHT22;1588;50.892;7.082;2023-01-01T05:15:36;14.10;99.90
3156;DHT22;1588;50.892;7.082;2023-01-01T05:20:39;14.00;99.90
3156;DHT22;1588;50.892;7.082;2023-01-01T05:25:42;14.00;99.90
3156;DHT22;1588;50.892;7.082;2023-01-01T05:30:44;13.90;99.90
3156;DHT22;1588;50.892;7.082;2023-01-01T05:35:53;14.00;99.90
3156;DHT22;1588;50.892;7.082;2023-01-01T05:40:56;13.90;99.90
3156;DHT22;1588;50.892;7.082;2023-01-01T05:45:59;13.90;99.90
3156;DHT22;1588;50.892;7.082;2023-01-01T05:51:06;13.90;99.90
3156;DHT22;1588;50.892;7.082;2023-01-01T05:56:09;13.90;99.90
3156;DHT22;1588;50.892;7.082;2023-01-01T06:01:13;14.00;99.90
3156;DHT22;1588;50.892;7.082;2023-01-01T06:06:19;13.90;99.90
3156;DHT22;1588;50.892;7.082;2023-01-01T06:11:28;13.90;99.90
3156;DHT22;1588;50.892;7.082;2023-01-01T06:16:32;13.90;99.90
3156;DHT22;1588;50.892;7.082;2023-01-01T06:21:35;13.70;99.90
3156;DHT22;1588;50.892;7.082;2023-01-01T06:26:38;13.80;99.90
3156;DHT22;1588;50.892;7.082;2023-01-01T06:31:40;13.80;99.90
3156;DHT22;1588;50.892;7.082;2023-01-01T06:36:44;13.80;99.90
3156;DHT22;1588;50.892;7.082;2023-01-01T06:41:47;13.80;99.90
3156;DHT22;1588;50.892;7.082;2023-01-01T06:46:50;13.70;99.90
3156;DHT22;1588;50.892;7.082;2023-01-01T06:51:55;13.70;99.90
3156;DHT22;1588;50.892;7.082;2023-01-01T06:57:00;13.70;99.90
3156;DHT22;1588;50.892;7.082;2023-01-01T07:02:06;13.70;99.90
3156;DHT22;1588;50.892;7.082;2023-01-01T07:07:16;13.80;99.90
3156;DHT22;1588;50.892;7.082;2023-01-01T07:12:24;13.80;99.90
3156;DHT22;1588;50.892;7.082;2023-01-01T07:17:26;13.80;99.90
3156;DHT22;1588;50.892;7.082;2023-01-01T07:22:30;13.90;99.90
3156;DHT22;1588;50.892;7.082;2023-01-01T07:27:33;13.80;99.90
3156;DHT22;1588;50.892;7.082;2023-01-01T07:32:36;13.80;99.90
3156;DHT22;1588;50.892;7.082;2023-01-01T07:37:42;13.80;99.90
3156;DHT22;1588;50.892;7.082;2023-01-01T07:42:46;13.70;99.90
3156;DHT22;1588;50.892;7.082;2023-01-01T07:47:59;13.80;99.90
3156;DHT22;1588;50.892;7.082;2023-01-01T07:53:03;13.70;99.90
3156;DHT22;1588;50.892;7.082;2023-01-01T07:58:07;13.60;99.90
3156;DHT22;1588;50.892;7.082;2023-01-01T08:03:09;13.40;99.90
3156;DHT22;1588;50.892;7.082;2023-01-01T08:08:19;13.50;99.90
3156;DHT22;1588;50.892;7.082;2023-01-01T08:13:22;13.50;99.90
3156;DHT22;1588;50.892;7.082;2023-01-01T08:18:24;13.50;99.90
3156;DHT22;1588;50.892;7.082;2023-01-01T08:23:28;13.50;99.90
3156;DHT22;1588;50.892;7.082;2023-01-01T08:28:31;13.60;99.90
3156;DHT22;1588;50.892;7.082;2023-01-01T08:33:34;13.50;99.90
3156;DHT22;1588;50.892;7.082;2023-01-01T08:38:38;13.60;99.90
3156;DHT22;1588;50.892;7.082;2023-01-01T08:43:40;13.80;99.90
3156;DHT22;1588;50.892;7.082;2023-01-01T08:48:42;13.80;99.90
3156;DHT22;1588;50.892;7.082;2023-01-01T08:53:46;13.90;99.90
3156;DHT22;1588;50.892;7.082;2023-01-01T08:58:49;14.00;99.90
3156;DHT22;1588;50.892;7.082;2023-01-01T09:03:51;14.10;99.90
3156;DHT22;1588;50.892;7.082;2023-01-01T09:08:55;14.10;99.90
3156;DHT22;1588;50.892;7.082;2023-01-01T09:13:57;14.00;99.90
3156;DHT22;1588;50.892;7.082;2023-01-01T09:19:00;13.90;99.90
3156;DHT22;1588;50.892;7.082;2023-01-01T09:24:06;13.90;99.90
3156;DHT22;1588;50.892;7.082;2023-01-01T09:29:11;13.90;99.90
3156;DHT22;1588;50.892;7.082;2023-01-01T09:34:18;13.90;99.90
3156;DHT22;1588;50.892;7.082;2023-01-01T09:39:24;13.80;99.90
3156;DHT22;1588;50.892;7.082;2023-01-01T09:44:48;13.80;99.90
3156;DHT22;1588;50.892;7.082;2023-01-01T09:49:58;13.80;99.90
3156;DHT22;1588;50.892;7.082;2023-01-01T09:55:08;13.90;99.90
3156;DHT22;1588;50.892;7.082;2023-01-01T10:00:14;13.90;99.90
3156;DHT22;1588;50.892;7.082;2023-01-01T10:05:30;13.90;99.90
3156;DHT22;1588;50.892;7.082;2023-01-01T10:10:39;13.90;99.90
3156;DHT22;1588;50.892;7.082;2023-01-01T10:15:46;13.90;99.90
3156;DHT22;1588;50.892;7.082;2023-01-01T10:20:56;14.00;99.90
3156;DHT22;1588;50.892;7.082;2023-01-01T10:26:07;14.00;99.90
3156;DHT22;1588;50.892;7.082;2023-01-01T10:31:19;14.10;99.90
3156;DHT22;1588;50.892;7.082;2023-01-01T10:36:22;14.10;99.90
3156;DHT22;1588;50.892;7.082;2023-01-01T10:41:26;14.00;99.90
3156;DHT22;1588;50.892;7.082;2023-01-01T10:46:29;14.00;99.90
3156;DHT22;1588;50.892;7.082;2023-01-01T10:51:32;14.00;99.90
3156;DHT22;1588;50.892;7.082;2023-01-01T10:56:41;13.90;99.90
3156;DHT22;1588;50.892;7.082;2023-01-01T11:01:44;13.90;99.90
3156;DHT22;1588;50.892;7.082;2023-01-01T11:06:47;14.00;99.90
3156;DHT22;1588;50.892;7.082;2023-01-01T11:11:56;14.00;99.90
3156;DHT22;1588;50.892;7.082;2023-01-01T11:17:02;13.90;99.90
3156;DHT22;1588;50.892;7.082;2023-01-01T11:22:05;14.00;99.90
3156;DHT22;1588;50.892;7.082;2023-01-01T11:27:21;14.00;99.90
3156;DHT22;1588;50.892;7.082;2023-01-01T11:32:29;13.90;99.90
3156;DHT22;1588;50.892;7.082;2023-01-01T11:37:34;13.90;99.90
3156;DHT22;1588;50.892;7.082;2023-01-01T11:42:47;13.90;99.90
3156;DHT22;1588;50.892;7.082;2023-01-01T11:47:54;13.80;99.90
3156;DHT22;1588;50.892;7.082;2023-01-01T11:53:15;13.80;99.90
3156;DHT22;1588;50.892;7.082;2023-01-01T11:58:23;13.70;99.90
3156;DHT22;1588;50.892;7.082;2023-01-01T12:03:32;13.80;99.90
3156;DHT22;1588;50.892;7.082;2023-01-01T12:08:38;13.80;99.90
3156;DHT22;1588;50.892;7.082;2023-01-01T12:13:49;13.80;99.90
3156;DHT22;1588;50.892;7.082;2023-01-01T12:18:59;13.80;99.90
3156;DHT22;1588;50.892;7.082;2023-01-01T12:24:06;13.80;99.90
3156;DHT22;1588;50.892;7.082;2023-01-01T12:29:26;13.80;99.90
3156;DHT22;1588;50.892;7.082;2023-01-01T12:34:32;13.80;99.90
3156;DHT22;1588;50.892;7.082;2023-01-01T12:40:00;13.80;99.90
3156;DHT22;1588;50.892;7.082;2023-01-01T12:45:21;13.80;99.90
3156;DHT22;1588;50.892;7.082;2023-01-01T12:50:36;13.90;99.90
3156;DHT22;1588;50.892;7.082;2023-01-01T12:56:12;13.90;99.90
3156;DHT22;1588;50.892;7.082;2023-01-01T13:01:24;13.90;99.90
3156;DHT22;1588;50.892;7.082;2023-01-01T13:06:35;14.00;99.90
3156;DHT22;1588;50.892;7.082;2023-01-01T13:11:39;13.90;99.90
3156;DHT22;1588;50.892;7.082;2023-01-01T13:16:47;13.80;99.90
3156;DHT22;1588;50.892;7.082;2023-01-01T13:21:51;13.80;99.90
3156;DHT22;1588;50.892;7.082;2023-01-01T13:26:53;13.80;99.90
3156;DHT22;1588;50.892;7.082;2023-01-01T13:32:03;13.80;99.90
3156;DHT22;1588;50.892;7.082;2023-01-01T13:37:30;13.80;99.90
3156;DHT22;1588;50.892;7.082;2023-01-01T13:42:42;13.80;99.90
3156;DHT22;1588;50.892;7.082;2023-01-01T13:48:08;13.70;99.90
3156;DHT22;1588;50.892;7.082;2023-01-01T13:53:40;13.80;99.90
3156;DHT22;1588;50.892;7.082;2023-01-01T13:59:12;13.90;99.90
3156;DHT22;1588;50.892;7.082;2023-01-01T14:04:37;13.90;99.90
3156;DHT22;1588;50.892;7.082;2023-01-01T14:09:41;14.00;99.90
3156;DHT22;1588;50.892;7.082;2023-01-01T14:14:46;14.00;99.90
3156;DHT22;1588;50.892;7.082;2023-01-01T14:19:52;13.90;99.90
3156;DHT22;1588;50.892;7.082;2023-01-01T14:24:55;13.80;99.90
3156;DHT22;1588;50.892;7.082;2023-01-01T14:29:58;13.80;99.90
3156;DHT22;1588;50.892;7.082;2023-01-01T14:35:11;13.70;99.90
3156;DHT22;1588;50.892;7.082;2023-01-01T14:40:20;13.60;99.90
3156;DHT22;1588;50.892;7.082;2023-01-01T14:45:28;13.60;99.90
3156;DHT22;1588;50.892;7.082;2023-01-01T14:50:33;13.50;99.90
3156;DHT22;1588;50.892;7.082;2023-01-01T14:55:39;13.40;99.90
3156;DHT22;1588;50.892;7.082;2023-01-01T15:00:46;13.40;99.90
3156;DHT22;1588;50.892;7.082;2023-01-01T15:05:58;13.30;99.90
3156;DHT22;1588;50.892;7.082;2023-01-01T15:11:02;13.20;99.90
3156;DHT22;1588;50.892;7.082;2023-01-01T15:16:15;13.10;99.90
3156;DHT22;1588;50.892;7.082;2023-01-01T15:21:32;13.00;99.90
3156;DHT22;1588;50.892;7.082;2023-01-01T15:26:41;12.80;99.90
3156;DHT22;1588;50.892;7.082;2023-01-01T15:31:48;12.70;99.90
3156;DHT22;1588;50.892;7.082;2023-01-01T15:36:53;12.60;99.90
3156;DHT22;1588;50.892;7.082;2023-01-01T15:41:56;12.60;99.90
3156;DHT22;1588;50.892;7.082;2023-01-01T15:47:11;12.50;99.90
3156;DHT22;1588;50.892;7.082;2023-01-01T15:52:24;12.30;99.90
3156;DHT22;1588;50.892;7.082;2023-01-01T15:57:52;12.20;99.90
3156;DHT22;1588;50.892;7.082;2023-01-01T16:03:18;12.10;99.90
3156;DHT22;1588;50.892;7.082;2023-01-01T16:08:24;12.00;99.90
3156;DHT22;1588;50.892;7.082;2023-01-01T16:13:26;11.80;99.90
3156;DHT22;1588;50.892;7.082;2023-01-01T16:18:31;11.80;99.90
3156;DHT22;1588;50.892;7.082;2023-01-01T16:23:35;11.70;99.90
3156;DHT22;1588;50.892;7.082;2023-01-01T16:28:38;11.60;99.90
3156;DHT22;1588;50.892;7.082;2023-01-01T16:33:40;11.60;99.90
3156;DHT22;1588;50.892;7.082;2023-01-01T16:38:45;11.50;99.90
3156;DHT22;1588;50.892;7.082;2023-01-01T16:43:49;11.50;99.90
3156;DHT22;1588;50.892;7.082;2023-01-01T16:48:51;11.50;99.90
3156;DHT22;1588;50.892;7.082;2023-01-01T16:54:06;11.40;99.90
3156;DHT22;1588;50.892;7.082;2023-01-01T16:59:19;11.40;99.90
3156;DHT22;1588;50.892;7.082;2023-01-01T17:04:23;11.30;99.90
3156;DHT22;1588;50.892;7.082;2023-01-01T17:09:27;11.30;99.90
3156;DHT22;1588;50.892;7.082;2023-01-01T17:14:29;11.20;99.90
3156;DHT22;1588;50.892;7.082;2023-01-01T17:19:32;11.30;99.90
3156;DHT22;1588;50.892;7.082;2023-01-01T17:24:36;11.20;99.90
3156;DHT22;1588;50.892;7.082;2023-01-01T17:29:38;11.20;99.90
3156;DHT22;1588;50.892;7.082;2023-01-01T17:34:41;11.20;99.90
3156;DHT22;1588;50.892;7.082;2023-01-01T17:39:45;11.10;99.90
3156;DHT22;1588;50.892;7.082;2023-01-01T17:44:47;11.00;99.90
3156;DHT22;1588;50.892;7.082;2023-01-01T17:49:53;11.10;99.90
3156;DHT22;1588;50.892;7.082;2023-01-01T17:54:57;11.00;99.90
3156;DHT22;1588;50.892;7.082;2023-01-01T17:59:59;11.00;99.90
3156;DHT22;1588;50.892;7.082;2023-01-01T18:05:04;11.00;99.90
3156;DHT22;1588;50.892;7.082;2023-01-01T18:10:08;11.00;99.90
3156;DHT22;1588;50.892;7.082;2023-01-01T18:21:44;11.20;99.90
3156;DHT22;1588;50.892;7.082;2023-01-01T18:26:48;11.10;99.90
3156;DHT22;1588;50.892;7.082;2023-01-01T18:31:50;11.20;99.90
3156;DHT22;1588;50.892;7.082;2023-01-01T18:36:55;11.20;99.90
3156;DHT22;1588;50.892;7.082;2023-01-01T18:42:22;11.20;99.90
3156;DHT22;1588;50.892;7.082;2023-01-01T18:47:25;11.20;99.90
3156;DHT22;1588;50.892;7.082;2023-01-01T18:52:32;11.20;99.90
3156;DHT22;1588;50.892;7.082;2023-01-01T18:57:37;11.10;99.90
3156;DHT22;1588;50.892;7.082;2023-01-01T19:02:44;11.10;99.90
3156;DHT22;1588;50.892;7.082;2023-01-01T19:07:52;11.00;99.90
3156;DHT22;1588;50.892;7.082;2023-01-01T19:12:59;11.00;99.90
3156;DHT22;1588;50.892;7.082;2023-01-01T19:18:15;11.00;99.90
3156;DHT22;1588;50.892;7.082;2023-01-01T19:23:22;11.10;99.90
3156;DHT22;1588;50.892;7.082;2023-01-01T19:28:35;11.10;99.90
3156;DHT22;1588;50.892;7.082;2023-01-01T19:33:40;11.10;99.90
3156;DHT22;1588;50.892;7.082;2023-01-01T19:38:53;11.20;99.90
3156;DHT22;1588;50.892;7.082;2023-01-01T19:43:59;11.10;99.90
3156;DHT22;1588;50.892;7.082;2023-01-01T19:49:02;11.20;99.90
3156;DHT22;1588;50.892;7.082;2023-01-01T19:54:05;11.30;99.90
3156;DHT22;1588;50.892;7.082;2023-01-01T19:59:10;11.40;99.90
3156;DHT22;1588;50.892;7.082;2023-01-01T20:04:18;11.40;99.90
3156;DHT22;1588;50.892;7.082;2023-01-01T20:09:20;11.40;99.90
3156;DHT22;1588;50.892;7.082;2023-01-01T20:14:25;11.40;99.90
3156;DHT22;1588;50.892;7.082;2023-01-01T20:19:28;11.40;99.90
3156;DHT22;1588;50.892;7.082;2023-01-01T20:24:33;11.30;99.90
3156;DHT22;1588;50.892;7.082;2023-01-01T20:29:41;11.30;99.90
3156;DHT22;1588;50.892;7.082;2023-01-01T20:34:44;11.40;99.90
3156;DHT22;1588;50.892;7.082;2023-01-01T20:39:48;11.40;99.90
3156;DHT22;1588;50.892;7.082;2023-01-01T20:44:52;11.40;99.90
3156;DHT22;1588;50.892;7.082;2023-01-01T20:49:55;11.40;99.90
3156;DHT22;1588;50.892;7.082;2023-01-01T20:55:06;11.40;99.90
3156;DHT22;1588;50.892;7.082;2023-01-01T21:00:11;11.40;99.90
3156;DHT22;1588;50.892;7.082;2023-01-01T21:05:14;11.50;99.90
3156;DHT22;1588;50.892;7.082;2023-01-01T21:10:17;11.40;99.90
3156;DHT22;1588;50.892;7.082;2023-01-01T21:15:25;11.50;99.90
3156;DHT22;1588;50.892;7.082;2023-01-01T21:20:37;11.70;99.90
3156;DHT22;1588;50.892;7.082;2023-01-01T21:25:50;11.70;99.90
3156;DHT22;1588;50.892;7.082;2023-01-01T21:30:56;11.80;99.90
3156;DHT22;1588;50.892;7.082;2023-01-01T21:36:10;12.10;99.90
3156;DHT22;1588;50.892;7.082;2023-01-01T21:41:16;12.20;99.90
3156;DHT22;1588;50.892;7.082;2023-01-01T21:46:31;12.30;99.90
3156;DHT22;1588;50.892;7.082;2023-01-01T21:51:38;12.50;99.90
3156;DHT22;1588;50.892;7.082;2023-01-01T21:56:48;12.40;99.90
3156;DHT22;1588;50.892;7.082;2023-01-01T22:01:56;12.40;99.90
3156;DHT22;1588;50.892;7.082;2023-01-01T22:07:04;12.60;99.90
3156;DHT22;1588;50.892;7.082;2023-01-01T22:12:17;12.70;99.90
3156;DHT22;1588;50.892;7.082;2023-01-01T22:17:25;12.70;99.90
3156;DHT22;1588;50.892;7.082;2023-01-01T22:22:30;12.70;99.90
3156;DHT22;1588;50.892;7.082;2023-01-01T22:27:34;12.80;99.90
3156;DHT22;1588;50.892;7.082;2023-01-01T22:32:39;12.90;99.90
3156;DHT22;1588;50.892;7.082;2023-01-01T22:37:41;12.90;99.90
3156;DHT22;1588;50.892;7.082;2023-01-01T22:42:44;12.90;99.90
3156;DHT22;1588;50.892;7.082;2023-01-01T22:47:48;13.00;99.90
3156;DHT22;1588;50.892;7.082;2023-01-01T22:52:50;13.00;99.90
3156;DHT22;1588;50.892;7.082;2023-01-01T22:57:53;13.10;99.90
3156;DHT22;1588;50.892;7.082;2023-01-01T23:02:57;13.00;99.90
3156;DHT22;1588;50.892;7.082;2023-01-01T23:07:59;13.10;99.90
3156;DHT22;1588;50.892;7.082;2023-01-01T23:13:01;13.10;99.90
3156;DHT22;1588;50.892;7.082;2023-01-01T23:18:25;13.20;99.90
3156;DHT22;1588;50.892;7.082;2023-01-01T23:23:29;13.40;99.90
3156;DHT22;1588;50.892;7.082;2023-01-01T23:28:32;13.50;99.90
3156;DHT22;1588;50.892;7.082;2023-01-01T23:33:37;13.50;99.90
3156;DHT22;1588;50.892;7.082;2023-01-01T23:38:43;13.50;99.90
3156;DHT22;1588;50.892;7.082;2023-01-01T23:43:46;13.40;99.90
3156;DHT22;1588;50.892;7.082;2023-01-01T23:48:51;13.40;99.90
3156;DHT22;1588;50.892;7.082;2023-01-01T23:53:54;13.40;99.90
3156;DHT22;1588;50.892;7.082;2023-01-01T23:58:57;13.30;99.90
